Time;durP1;ratioP1;P1;durP2;ratioP2;P2;SDS_P1;SDS_P2;PMS_P1;PMS_P2;Temp;Humidity;BMP_temperature;BMP_pressure;BME280_temperature;BME280_humidity;BME280_pressure;Samples;Min_cycle;Max_cycle;Signal;HPM_P1;HPM_P2
2021/07/19 00:00:25;;;;;;;13.23;5.40;;;18.70;49.50;;;;;;4904534;29;20184;-87
2021/07/19 00:02:54;;;;;;;9.00;4.47;;;18.60;49.70;;;;;;4898002;29;20576;-87
2021/07/19 00:05:28;;;;;;;13.00;4.88;;;18.60;50.30;;;;;;4898024;29;20037;-87
2021/07/19 00:07:55;;;;;;;11.00;4.95;;;18.50;50.00;;;;;;4898258;29;20028;-88
2021/07/19 00:10:21;;;;;;;12.23;5.38;;;18.50;49.90;;;;;;4897829;29;20156;-87
2021/07/19 00:12:48;;;;;;;9.73;5.32;;;18.50;50.30;;;;;;4898171;29;20542;-87
2021/07/19 00:15:17;;;;;;;9.43;5.40;;;18.50;50.50;;;;;;4883642;29;20045;-87
2021/07/19 00:17:44;;;;;;;10.38;5.18;;;18.40;50.60;;;;;;4883519;29;20017;-87
2021/07/19 00:20:11;;;;;;;9.18;5.15;;;18.40;50.60;;;;;;4913028;29;20089;-88
2021/07/19 00:22:37;;;;;;;11.55;5.38;;;18.30;50.70;;;;;;4883140;29;20049;-87
2021/07/19 00:25:08;;;;;;;10.07;5.05;;;18.30;50.80;;;;;;4913386;29;20398;-87
2021/07/19 00:27:33;;;;;;;10.30;5.20;;;18.30;51.20;;;;;;4913054;29;20060;-87
2021/07/19 00:29:59;;;;;;;10.30;5.40;;;18.30;51.20;;;;;;4896527;29;20486;-87
2021/07/19 00:32:25;;;;;;;10.38;5.43;;;18.20;51.30;;;;;;4929400;29;20037;-89
2021/07/19 00:34:51;;;;;;;10.73;5.43;;;18.10;51.30;;;;;;4915567;29;20041;-89
2021/07/19 00:37:17;;;;;;;10.35;5.50;;;18.10;51.50;;;;;;4899991;29;20080;-89
2021/07/19 00:39:44;;;;;;;10.57;5.20;;;18.10;51.70;;;;;;4903986;29;20521;-89
2021/07/19 00:42:12;;;;;;;9.20;5.28;;;18.00;51.70;;;;;;4898005;29;20033;-89
2021/07/19 00:44:37;;;;;;;9.02;5.10;;;18.00;51.90;;;;;;4897429;29;20064;-90
2021/07/19 00:47:05;;;;;;;10.93;5.90;;;18.00;52.00;;;;;;4881950;29;20029;-89
2021/07/19 00:49:32;;;;;;;9.32;5.68;;;18.00;52.10;;;;;;4897468;29;20044;-89
2021/07/19 00:52:00;;;;;;;11.57;5.45;;;17.90;52.20;;;;;;4899992;29;20036;-89
2021/07/19 00:54:29;;;;;;;10.40;5.22;;;17.80;52.30;;;;;;4921486;29;20041;-88
2021/07/19 00:56:57;;;;;;;10.05;5.57;;;17.80;52.50;;;;;;4915512;29;20037;-90
2021/07/19 00:59:24;;;;;;;11.25;5.47;;;17.80;52.60;;;;;;4897850;29;20049;-90
2021/07/19 01:01:53;;;;;;;10.70;5.70;;;17.90;52.80;;;;;;4898306;29;20036;-89
2021/07/19 01:04:20;;;;;;;11.35;5.60;;;17.80;52.80;;;;;;4897469;29;20128;-90
2021/07/19 01:06:48;;;;;;;10.40;5.70;;;17.70;53.00;;;;;;4904358;29;20037;-89
2021/07/19 01:09:15;;;;;;;9.80;4.93;;;17.80;53.10;;;;;;4910291;29;20028;-89
2021/07/19 01:11:41;;;;;;;10.25;5.72;;;17.60;53.10;;;;;;4901667;29;20025;-89
2021/07/19 01:14:09;;;;;;;12.13;5.85;;;17.60;53.10;;;;;;4916265;29;20374;-91
2021/07/19 01:16:35;;;;;;;11.20;5.70;;;17.50;54.00;;;;;;4916593;29;20180;-91
2021/07/19 01:19:01;;;;;;;12.77;6.05;;;17.50;53.40;;;;;;4915947;29;20049;-89
2021/07/19 01:21:27;;;;;;;12.55;5.82;;;17.60;53.60;;;;;;4908484;29;20036;-90
2021/07/19 01:24:27;;;;;;;9.73;5.63;;;17.50;53.70;;;;;;4886311;29;20029;-89
2021/07/19 01:27:27;;;;;;;11.38;5.88;;;17.40;54.00;;;;;;4883055;29;20390;-89
2021/07/19 01:29:56;;;;;;;11.80;6.15;;;17.40;54.10;;;;;;4896846;29;20033;-89
2021/07/19 01:32:23;;;;;;;12.27;6.07;;;17.40;54.10;;;;;;4896752;29;20386;-90
2021/07/19 01:34:50;;;;;;;9.90;5.68;;;17.20;54.10;;;;;;4897539;29;20112;-88
2021/07/19 01:37:16;;;;;;;11.52;6.03;;;17.40;54.20;;;;;;4899456;29;20048;-87
2021/07/19 01:39:43;;;;;;;10.95;5.97;;;17.30;54.30;;;;;;4915160;29;20083;-86
2021/07/19 01:42:10;;;;;;;10.75;6.15;;;17.30;54.40;;;;;;4915457;29;20087;-86
2021/07/19 01:44:38;;;;;;;12.88;6.05;;;17.20;54.50;;;;;;4931269;29;20033;-88
2021/07/19 01:47:06;;;;;;;9.90;5.28;;;17.20;54.70;;;;;;4899658;29;20038;-88
2021/07/19 01:49:33;;;;;;;10.98;5.72;;;17.10;54.80;;;;;;4900025;29;20065;-88
2021/07/19 01:51:59;;;;;;;10.95;5.43;;;17.20;55.00;;;;;;4901420;29;20055;-88
2021/07/19 01:54:26;;;;;;;11.80;6.03;;;17.20;55.00;;;;;;4895946;29;20036;-88
2021/07/19 01:56:52;;;;;;;11.63;6.35;;;17.20;55.20;;;;;;4911893;29;20035;-88
2021/07/19 01:59:18;;;;;;;12.13;6.13;;;17.10;55.30;;;;;;4887125;29;20051;-88
2021/07/19 02:01:44;;;;;;;10.63;5.80;;;17.10;55.30;;;;;;4899371;29;20032;-88
2021/07/19 02:04:10;;;;;;;9.98;5.50;;;17.10;55.20;;;;;;4884123;29;20128;-87
2021/07/19 02:06:40;;;;;;;11.73;6.38;;;17.00;55.40;;;;;;4909172;29;20062;-87
2021/07/19 02:09:08;;;;;;;11.93;5.82;;;17.00;55.70;;;;;;4899258;29;20381;-86
2021/07/19 02:11:34;;;;;;;11.15;5.88;;;17.00;55.70;;;;;;4883495;29;20028;-89
2021/07/19 02:14:06;;;;;;;15.25;6.00;;;17.10;55.80;;;;;;4899437;29;20024;-88
2021/07/19 02:16:32;;;;;;;12.65;6.13;;;17.10;55.90;;;;;;4919846;29;20041;-83
2021/07/19 02:18:59;;;;;;;10.23;5.63;;;17.00;55.90;;;;;;4921449;29;20033;-89
2021/07/19 02:21:25;;;;;;;12.40;6.10;;;16.90;55.90;;;;;;4900036;29;20478;-89
2021/07/19 02:23:52;;;;;;;11.27;6.22;;;16.90;56.00;;;;;;4900021;29;20086;-88
2021/07/19 02:26:20;;;;;;;11.93;6.13;;;16.80;56.10;;;;;;4900239;29;20036;-88
2021/07/19 02:28:47;;;;;;;11.93;5.63;;;16.80;56.30;;;;;;4899474;29;20422;-89
2021/07/19 02:31:15;;;;;;;11.75;6.32;;;16.70;56.20;;;;;;4899082;29;20043;-88
2021/07/19 02:33:45;;;;;;;12.57;5.75;;;16.70;56.40;;;;;;4898849;29;20033;-88
2021/07/19 02:36:11;;;;;;;12.98;6.30;;;16.80;56.60;;;;;;4899388;29;20095;-88
2021/07/19 02:38:39;;;;;;;10.30;5.85;;;16.80;56.70;;;;;;4891425;29;20117;-88
2021/07/19 02:41:06;;;;;;;11.00;6.15;;;16.70;56.80;;;;;;4899185;29;20097;-89
2021/07/19 02:43:33;;;;;;;11.50;6.30;;;16.70;56.90;;;;;;4898749;29;20029;-89
2021/07/19 02:46:00;;;;;;;12.95;6.40;;;16.60;56.90;;;;;;4898980;29;20037;-89
2021/07/19 02:48:29;;;;;;;11.18;6.15;;;16.70;56.90;;;;;;4899118;29;20029;-89
2021/07/19 02:50:58;;;;;;;11.10;6.32;;;16.70;57.00;;;;;;4898513;29;20036;-88
2021/07/19 02:53:28;;;;;;;10.63;5.97;;;16.70;57.10;;;;;;4898460;29;20032;-88
2021/07/19 02:55:55;;;;;;;13.00;6.80;;;16.60;57.10;;;;;;4899651;29;20060;-89
2021/07/19 02:58:21;;;;;;;11.80;6.18;;;16.60;57.20;;;;;;4898428;29;20386;-88
2021/07/19 03:00:49;;;;;;;11.23;6.15;;;16.50;57.20;;;;;;4879846;29;20144;-88
2021/07/19 03:03:24;;;;;;;11.73;6.50;;;16.50;57.30;;;;;;4895546;29;20029;-88
2021/07/19 03:05:55;;;;;;;13.30;6.70;;;16.50;57.70;;;;;;4895321;29;20478;-89
2021/07/19 03:08:22;;;;;;;11.68;6.45;;;16.40;57.70;;;;;;4881207;29;20080;-89
2021/07/19 03:10:56;;;;;;;12.40;5.95;;;16.50;57.70;;;;;;4879957;29;20044;-89
2021/07/19 03:13:28;;;;;;;15.25;5.93;;;16.40;57.80;;;;;;4895506;29;20021;-90
2021/07/19 03:15:57;;;;;;;12.07;5.90;;;16.40;57.80;;;;;;4895859;29;20073;-90
2021/07/19 03:18:24;;;;;;;11.07;6.60;;;16.30;57.80;;;;;;4895816;29;20493;-90
2021/07/19 03:20:51;;;;;;;11.52;6.32;;;16.40;58.10;;;;;;4913458;29;20434;-90
2021/07/19 03:23:26;;;;;;;12.85;6.60;;;16.40;58.10;;;;;;4914629;29;20028;-89
2021/07/19 03:25:53;;;;;;;14.57;7.38;;;16.50;58.60;;;;;;4914626;29;20481;-90
2021/07/19 03:28:21;;;;;;;13.82;7.25;;;16.40;58.50;;;;;;4914981;29;20029;-89
2021/07/19 03:30:48;;;;;;;13.75;7.93;;;16.40;58.70;;;;;;4914499;29;20036;-93
2021/07/19 03:33:15;;;;;;;14.15;8.00;;;16.30;58.80;;;;;;4914677;29;20025;-90
2021/07/19 03:35:42;;;;;;;16.05;8.40;;;16.50;58.90;;;;;;4915084;29;20056;-90
2021/07/19 03:38:09;;;;;;;13.23;7.50;;;16.60;59.00;;;;;;4910443;29;20080;-83
2021/07/19 03:40:36;;;;;;;13.07;7.32;;;16.60;58.90;;;;;;4922116;29;20112;-83
2021/07/19 03:43:02;;;;;;;12.80;7.38;;;16.60;58.80;;;;;;4907361;29;20039;-87
2021/07/19 03:45:30;;;;;;;12.20;7.03;;;16.50;58.80;;;;;;4898688;29;20032;-89
2021/07/19 03:47:56;;;;;;;12.63;7.25;;;16.50;58.90;;;;;;4895287;29;20041;-89
2021/07/19 03:50:23;;;;;;;14.70;7.55;;;16.50;59.00;;;;;;4905508;29;20033;-88
2021/07/19 03:52:51;;;;;;;15.45;8.13;;;16.50;59.10;;;;;;4913948;29;20466;-89
2021/07/19 03:55:17;;;;;;;14.43;8.35;;;16.50;59.30;;;;;;4913563;29;20045;-89
2021/07/19 03:57:44;;;;;;;13.55;7.55;;;16.40;60.00;;;;;;4913902;29;20043;-89
2021/07/19 04:00:14;;;;;;;16.83;8.05;;;16.60;59.70;;;;;;4898217;29;20053;-89
2021/07/19 04:02:42;;;;;;;13.90;8.23;;;16.60;59.70;;;;;;4906317;29;20137;-89
2021/07/19 04:05:14;;;;;;;12.68;7.07;;;16.70;60.00;;;;;;4916449;29;20573;-89
2021/07/19 04:07:46;;;;;;;16.17;8.63;;;16.70;60.10;;;;;;4921148;29;20183;-89
2021/07/19 04:10:15;;;;;;;12.90;7.95;;;16.80;60.20;;;;;;4906717;29;20054;-89
2021/07/19 04:12:44;;;;;;;14.63;8.25;;;16.90;60.40;;;;;;4907870;29;20079;-89
2021/07/19 04:15:09;;;;;;;13.93;8.27;;;16.90;60.40;;;;;;4923691;29;20048;-89
2021/07/19 04:17:36;;;;;;;12.30;7.57;;;17.00;60.40;;;;;;4922357;29;20021;-89
2021/07/19 04:20:05;;;;;;;13.27;7.88;;;17.00;60.50;;;;;;4905930;29;20028;-88
2021/07/19 04:22:32;;;;;;;14.77;7.95;;;17.00;60.60;;;;;;4922528;29;20052;-86
2021/07/19 04:24:58;;;;;;;14.73;7.53;;;17.20;60.70;;;;;;4918531;29;20076;-87
2021/07/19 04:27:24;;;;;;;11.32;7.22;;;17.20;60.80;;;;;;4903907;29;20029;-89
2021/07/19 04:29:52;;;;;;;12.60;8.23;;;17.20;60.80;;;;;;4908234;29;20032;-88
2021/07/19 04:32:21;;;;;;;11.95;7.57;;;17.30;61.20;;;;;;4910745;29;20029;-87
2021/07/19 04:34:50;;;;;;;13.10;7.82;;;17.30;61.20;;;;;;4923524;29;20037;-93
2021/07/19 04:37:16;;;;;;;15.88;8.10;;;17.30;61.30;;;;;;4916882;29;20036;-94
2021/07/19 04:39:42;;;;;;;13.73;7.43;;;17.40;61.30;;;;;;4904339;29;20104;-95
2021/07/19 04:42:09;;;;;;;11.50;7.35;;;17.50;61.50;;;;;;4904984;29;20029;-94
2021/07/19 04:44:37;;;;;;;12.27;6.75;;;17.50;61.60;;;;;;4903346;29;20073;-95
2021/07/19 04:47:03;;;;;;;12.88;6.75;;;17.60;61.80;;;;;;4903335;29;20032;-94
2021/07/19 04:49:37;;;;;;;13.57;7.35;;;17.70;61.70;;;;;;4903064;29;20035;-93
2021/07/19 04:52:03;;;;;;;14.83;6.97;;;17.70;61.70;;;;;;4902125;29;20097;-92
2021/07/19 04:54:38;;;;;;;10.98;6.47;;;17.80;61.60;;;;;;4901660;29;20269;-93
2021/07/19 04:57:05;;;;;;;;;;;17.80;61.90;;;;;;4902328;29;20045;-90
2021/07/19 04:59:34;;;;;;;13.18;6.80;;;17.80;61.20;;;;;;4895461;29;20392;-83
2021/07/19 05:02:00;;;;;;;12.52;7.30;;;17.90;61.90;;;;;;4903590;29;20029;-82
2021/07/19 05:04:28;;;;;;;11.73;6.85;;;17.90;62.10;;;;;;4902505;29;20039;-82
2021/07/19 05:06:56;;;;;;;10.70;6.88;;;18.00;62.20;;;;;;4901069;29;20025;-82
2021/07/19 05:09:23;;;;;;;13.70;7.28;;;18.00;62.10;;;;;;4900949;29;20056;-82
2021/07/19 05:11:50;;;;;;;11.48;6.78;;;18.10;62.20;;;;;;4900772;29;20478;-83
2021/07/19 05:14:16;;;;;;;12.90;7.82;;;18.10;62.20;;;;;;4900492;29;20080;-83
2021/07/19 05:16:44;;;;;;;12.13;7.22;;;18.10;62.10;;;;;;4900112;29;20033;-82
2021/07/19 05:19:11;;;;;;;11.90;6.93;;;18.10;62.20;;;;;;4900140;29;20430;-84
2021/07/19 05:21:38;;;;;;;11.80;7.22;;;18.00;62.20;;;;;;4900544;29;20067;-84
2021/07/19 05:24:05;;;;;;;11.63;7.40;;;18.10;62.30;;;;;;4895469;29;20056;-82
2021/07/19 05:26:32;;;;;;;14.52;7.68;;;18.10;62.40;;;;;;4881989;29;20032;-81
2021/07/19 05:28:58;;;;;;;13.15;7.07;;;18.20;62.50;;;;;;4881560;29;20029;-83
2021/07/19 05:31:24;;;;;;;12.93;7.55;;;18.20;62.60;;;;;;4895860;29;20494;-83
2021/07/19 05:33:50;;;;;;;11.52;7.20;;;18.20;62.80;;;;;;4881588;29;20021;-82
2021/07/19 05:36:15;;;;;;;11.88;7.05;;;18.30;62.90;;;;;;4881528;29;20379;-83
2021/07/19 05:38:41;;;;;;;12.43;7.65;;;18.30;62.90;;;;;;4880173;29;20108;-83
2021/07/19 05:41:08;;;;;;;10.88;7.03;;;18.40;63.10;;;;;;4895984;29;20033;-84
2021/07/19 05:43:38;;;;;;;15.35;7.32;;;18.40;63.10;;;;;;4880402;29;20052;-84
2021/07/19 05:46:04;;;;;;;11.63;6.85;;;18.50;63.30;;;;;;4881241;29;20040;-83
2021/07/19 05:48:30;;;;;;;12.57;7.30;;;18.30;63.20;;;;;;4879695;29;20029;-84
2021/07/19 05:50:57;;;;;;;15.82;7.80;;;18.60;63.60;;;;;;4880140;29;20037;-84
2021/07/19 05:53:23;;;;;;;12.32;7.82;;;18.70;63.70;;;;;;4880171;29;20021;-84
2021/07/19 05:55:52;;;;;;;11.23;6.47;;;18.80;63.80;;;;;;4879920;29;20421;-84
2021/07/19 05:58:18;;;;;;;11.52;7.32;;;18.90;63.90;;;;;;4880017;29;20028;-84
2021/07/19 06:00:44;;;;;;;13.45;7.05;;;18.90;64.00;;;;;;4879660;29;20052;-85
2021/07/19 06:03:10;;;;;;;11.77;7.53;;;19.00;64.00;;;;;;4879631;29;20026;-86
2021/07/19 06:05:36;;;;;;;12.43;7.13;;;19.10;64.30;;;;;;4880422;29;20037;-87
2021/07/19 06:08:03;;;;;;;13.00;7.55;;;19.20;64.40;;;;;;4879818;29;20029;-87
2021/07/19 06:10:29;;;;;;;11.68;7.15;;;19.20;64.30;;;;;;4879793;29;20033;-86
2021/07/19 06:12:54;;;;;;;12.13;7.90;;;19.30;64.30;;;;;;4879802;29;20454;-85
2021/07/19 06:15:20;;;;;;;13.65;6.88;;;19.30;64.50;;;;;;4879483;29;20075;-82
2021/07/19 06:17:46;;;;;;;11.73;7.00;;;19.40;64.70;;;;;;4880662;29;20084;-86
2021/07/19 06:20:19;;;;;;;12.55;7.35;;;19.50;64.70;;;;;;4880750;29;20025;-86
2021/07/19 06:22:46;;;;;;;12.32;6.20;;;19.50;64.90;;;;;;4879423;29;20064;-82
2021/07/19 06:25:14;;;;;;;11.10;6.63;;;19.60;64.80;;;;;;4880487;29;20033;-88
2021/07/19 06:27:41;;;;;;;12.63;7.28;;;19.70;64.90;;;;;;4879979;29;20036;-88
2021/07/19 06:30:09;;;;;;;10.90;6.75;;;19.80;64.90;;;;;;4880102;29;20056;-88
2021/07/19 06:32:35;;;;;;;14.27;6.32;;;19.80;65.00;;;;;;4881173;29;20427;-88
2021/07/19 06:35:01;;;;;;;9.70;5.90;;;20.00;65.10;;;;;;4882181;29;20033;-88
2021/07/19 06:37:28;;;;;;;11.75;5.85;;;20.10;65.30;;;;;;4893669;29;20128;-90
2021/07/19 06:39:53;;;;;;;14.38;6.72;;;20.20;65.40;;;;;;4898954;29;20052;-88
2021/07/19 06:42:19;;;;;;;10.45;6.43;;;20.30;65.50;;;;;;4898813;29;20482;-87
2021/07/19 06:44:46;;;;;;;11.68;6.10;;;20.50;65.70;;;;;;4899662;29;20033;-87
2021/07/19 06:47:12;;;;;;;10.88;5.22;;;20.40;65.50;;;;;;4882863;29;20119;-87
2021/07/19 06:49:38;;;;;;;14.20;5.72;;;20.80;65.80;;;;;;4899285;29;20059;-87
2021/07/19 06:52:04;;;;;;;12.77;5.82;;;20.90;65.60;;;;;;4900559;29;20032;-88
2021/07/19 06:54:35;;;;;;;9.57;5.20;;;21.00;65.60;;;;;;4884645;29;20029;-88
2021/07/19 06:57:01;;;;;;;11.77;5.43;;;21.10;65.60;;;;;;4880264;29;20072;-87
2021/07/19 06:59:27;;;;;;;9.88;5.00;;;21.20;65.40;;;;;;4883849;29;20093;-86
2021/07/19 07:01:52;;;;;;;11.10;5.13;;;21.10;65.00;;;;;;4899594;29;20032;-86
2021/07/19 07:04:18;;;;;;;9.70;4.72;;;21.30;65.10;;;;;;4917957;29;20385;-86
2021/07/19 07:06:44;;;;;;;10.73;4.70;;;21.30;65.10;;;;;;4901026;29;20124;-86
2021/07/19 07:09:09;;;;;;;8.57;4.43;;;21.40;65.00;;;;;;4900267;29;20035;-87
2021/07/19 07:11:35;;;;;;;9.95;4.78;;;21.40;64.90;;;;;;4900612;29;20032;-86
2021/07/19 07:14:01;;;;;;;9.70;4.93;;;21.50;64.90;;;;;;4884917;29;20048;-86
2021/07/19 07:16:27;;;;;;;10.25;4.15;;;21.50;64.70;;;;;;4900591;29;20050;-87
2021/07/19 07:18:53;;;;;;;11.00;4.80;;;21.50;64.80;;;;;;4917085;29;20376;-86
2021/07/19 07:21:19;;;;;;;9.73;4.93;;;21.40;64.80;;;;;;4900709;29;20039;-86
2021/07/19 07:23:45;;;;;;;11.20;4.80;;;21.70;64.90;;;;;;4900710;29;20024;-86
2021/07/19 07:26:11;;;;;;;9.93;4.90;;;21.70;64.80;;;;;;4885200;29;20036;-86
2021/07/19 07:28:37;;;;;;;11.93;4.57;;;21.80;64.90;;;;;;4869241;29;20032;-86
2021/07/19 07:31:02;;;;;;;10.93;4.70;;;21.70;64.80;;;;;;4900326;29;20027;-86
2021/07/19 07:33:28;;;;;;;9.63;4.63;;;21.90;64.80;;;;;;4900565;29;20445;-86
2021/07/19 07:35:53;;;;;;;8.70;4.07;;;21.90;64.90;;;;;;4899643;29;20044;-87
2021/07/19 07:38:19;;;;;;;9.60;4.63;;;21.90;64.90;;;;;;4900081;29;20039;-87
2021/07/19 07:40:45;;;;;;;11.85;5.28;;;22.00;65.00;;;;;;4917569;29;20397;-86
2021/07/19 07:43:11;;;;;;;11.88;5.00;;;22.10;65.10;;;;;;4904029;29;20063;-86
2021/07/19 07:45:37;;;;;;;11.43;4.70;;;22.20;65.00;;;;;;4903834;29;20027;-87
2021/07/19 07:48:03;;;;;;;12.18;4.72;;;22.30;65.20;;;;;;4904806;29;20028;-87
2021/07/19 07:50:29;;;;;;;9.20;3.97;;;22.40;65.10;;;;;;4904515;29;20036;-87
2021/07/19 07:52:55;;;;;;;9.30;3.90;;;22.40;65.00;;;;;;4904153;29;20111;-87
2021/07/19 07:55:20;;;;;;;11.35;4.43;;;22.60;65.10;;;;;;4904020;29;20135;-87
2021/07/19 07:57:46;;;;;;;15.68;4.28;;;22.60;65.10;;;;;;4888920;29;20040;-87
2021/07/19 08:00:18;;;;;;;8.93;4.05;;;22.60;65.00;;;;;;4900370;29;20147;-87
2021/07/19 08:02:44;;;;;;;12.52;4.10;;;22.70;65.00;;;;;;4885174;29;20363;-87
2021/07/19 08:05:12;;;;;;;9.60;3.63;;;22.80;64.90;;;;;;4884977;29;20077;-86
2021/07/19 08:07:38;;;;;;;10.25;4.15;;;22.90;64.80;;;;;;4884843;29;20119;-86
2021/07/19 08:10:06;;;;;;;10.50;4.20;;;23.00;64.80;;;;;;4884638;29;20482;-86
2021/07/19 08:12:32;;;;;;;9.07;3.92;;;23.00;64.70;;;;;;4885038;29;20079;-87
2021/07/19 08:14:58;;;;;;;7.75;3.40;;;23.10;64.70;;;;;;4884899;29;20501;-86
2021/07/19 08:17:24;;;;;;;8.00;3.50;;;23.20;64.60;;;;;;4884738;29;20041;-87
2021/07/19 08:19:50;;;;;;;17.45;6.38;;;23.20;64.60;;;;;;4884729;29;20033;-86
2021/07/19 08:22:17;;;;;;;15.85;6.18;;;23.30;64.60;;;;;;4901429;29;20032;-86
2021/07/19 08:24:43;;;;;;;17.42;6.65;;;23.40;64.40;;;;;;4884456;29;20031;-86
2021/07/19 08:27:12;;;;;;;13.88;5.32;;;23.50;64.50;;;;;;4884860;29;20120;-87
2021/07/19 08:29:39;;;;;;;9.13;3.60;;;23.50;64.30;;;;;;4884505;29;20477;-86
2021/07/19 08:32:06;;;;;;;10.23;3.90;;;23.60;64.30;;;;;;4869078;29;20040;-86
2021/07/19 08:34:33;;;;;;;10.20;3.58;;;23.70;64.30;;;;;;4885242;29;20020;-86
2021/07/19 08:36:59;;;;;;;6.72;3.03;;;23.80;64.10;;;;;;4886741;29;20047;-86
2021/07/19 08:39:25;;;;;;;8.15;3.50;;;23.80;63.80;;;;;;4894129;29;20033;-86
2021/07/19 08:41:51;;;;;;;7.93;3.42;;;23.90;63.70;;;;;;4884171;29;20040;-86
2021/07/19 08:44:17;;;;;;;9.88;3.45;;;23.90;63.70;;;;;;4900954;29;20040;-86
2021/07/19 08:46:47;;;;;;;7.15;3.30;;;24.00;63.80;;;;;;4884424;29;20371;-86
2021/07/19 08:49:13;;;;;;;6.78;3.13;;;24.00;63.80;;;;;;4900132;29;20056;-86
2021/07/19 08:51:41;;;;;;;7.32;3.38;;;24.20;63.90;;;;;;4899327;29;20052;-86
2021/07/19 08:54:11;;;;;;;8.77;3.30;;;24.20;63.40;;;;;;4899383;29;20561;-87
2021/07/19 08:56:42;;;;;;;6.45;3.15;;;24.30;63.50;;;;;;4899743;29;20132;-87
2021/07/19 08:59:08;;;;;;;9.02;3.28;;;24.30;63.60;;;;;;4899492;29;20097;-87
2021/07/19 09:01:37;;;;;;;9.80;3.00;;;24.40;63.50;;;;;;4899647;29;20096;-87
2021/07/19 09:04:12;;;;;;;7.18;2.95;;;24.50;63.50;;;;;;4899677;29;20473;-86
2021/07/19 09:06:39;;;;;;;4.95;2.70;;;24.70;63.60;;;;;;4899580;29;20405;-87
2021/07/19 09:09:05;;;;;;;6.60;3.10;;;24.90;63.70;;;;;;4899337;29;20112;-86
2021/07/19 09:11:31;;;;;;;6.95;3.03;;;25.10;63.80;;;;;;4900060;29;20061;-86
2021/07/19 09:13:58;;;;;;;7.85;3.15;;;25.30;63.60;;;;;;4899471;29;20532;-86
2021/07/19 09:16:24;;;;;;;6.15;2.95;;;25.50;63.80;;;;;;4899071;29;20032;-86
2021/07/19 09:19:04;;;;;;;6.75;3.05;;;25.80;64.00;;;;;;4904402;29;20124;-86
2021/07/19 09:21:35;;;;;;;6.90;3.10;;;26.20;64.00;;;;;;4883802;29;20032;-86
2021/07/19 09:24:06;;;;;;;6.15;2.95;;;26.40;64.00;;;;;;4883760;29;20032;-87
2021/07/19 09:26:33;;;;;;;8.60;3.33;;;26.90;64.30;;;;;;4884443;29;20485;-86
2021/07/19 09:28:59;;;;;;;7.72;3.28;;;27.20;63.40;;;;;;4883888;29;20485;-85
2021/07/19 09:31:44;;;;;;;7.43;3.35;;;27.40;62.80;;;;;;4901065;29;20036;-87
2021/07/19 09:34:28;;;;;;;6.50;3.00;;;27.60;62.80;;;;;;4883449;29;20027;-86
2021/07/19 09:36:58;;;;;;;8.70;3.27;;;27.80;62.20;;;;;;4931534;29;20098;-86
2021/07/19 09:39:28;;;;;;;10.70;2.90;;;28.00;62.20;;;;;;4901905;29;20621;-86
2021/07/19 09:42:13;;;;;;;7.93;2.92;;;28.00;61.30;;;;;;4901874;29;20036;-86
2021/07/19 09:44:40;;;;;;;6.65;2.83;;;28.10;61.20;;;;;;4918705;29;20035;-86
2021/07/19 09:47:09;;;;;;;6.05;2.90;;;28.10;61.40;;;;;;4918944;29;20020;-86
2021/07/19 09:49:38;;;;;;;6.30;3.00;;;28.30;61.10;;;;;;4901607;29;20072;-86
2021/07/19 09:52:13;;;;;;;5.90;2.72;;;28.50;60.90;;;;;;4901873;29;20056;-86
2021/07/19 09:54:44;;;;;;;6.88;2.95;;;28.40;59.70;;;;;;4901631;29;20032;-87
2021/07/19 09:57:12;;;;;;;6.50;2.90;;;28.40;59.30;;;;;;4901619;29;20036;-87
2021/07/19 09:59:51;;;;;;;6.80;3.10;;;28.40;59.40;;;;;;4918273;29;20048;-87
2021/07/19 10:02:38;;;;;;;6.63;2.80;;;28.40;59.90;;;;;;4901037;29;20040;-86
2021/07/19 10:05:26;;;;;;;7.35;2.88;;;28.60;60.00;;;;;;4917956;29;20111;-86
2021/07/19 10:07:52;;;;;;;6.30;2.78;;;28.80;60.40;;;;;;4901912;29;20020;-88
2021/07/19 10:10:18;;;;;;;9.43;3.00;;;29.10;60.10;;;;;;4902007;29;20039;-86
2021/07/19 10:12:44;;;;;;;7.63;2.70;;;29.20;59.70;;;;;;4917600;29;20033;-86
2021/07/19 10:15:11;;;;;;;5.80;2.60;;;29.30;59.20;;;;;;4917551;29;20036;-86
2021/07/19 10:17:38;;;;;;;6.65;2.60;;;29.20;58.80;;;;;;4901625;29;20519;-86
2021/07/19 10:20:13;;;;;;;5.22;2.60;;;29.20;59.10;;;;;;4901530;29;20042;-86
2021/07/19 10:22:42;;;;;;;5.72;2.60;;;29.40;59.60;;;;;;4918097;29;20043;-87
2021/07/19 10:25:08;;;;;;;6.70;2.97;;;29.60;58.80;;;;;;4918463;29;20032;-87
2021/07/19 10:27:38;;;;;;;5.80;2.70;;;29.60;58.90;;;;;;4917551;29;20024;-86
2021/07/19 10:30:06;;;;;;;5.57;2.63;;;29.60;58.10;;;;;;4917033;29;20114;-86
2021/07/19 10:32:35;;;;;;;7.97;2.92;;;29.50;57.80;;;;;;4901191;29;20036;-87
2021/07/19 10:35:01;;;;;;;5.68;2.50;;;29.60;58.30;;;;;;4897983;29;20085;-84
2021/07/19 10:37:34;;;;;;;7.85;3.63;;;29.90;58.60;;;;;;4899276;29;20044;-87
2021/07/19 10:40:00;;;;;;;6.35;2.85;;;30.00;57.70;;;;;;4882575;29;20021;-86
2021/07/19 10:42:37;;;;;;;5.95;2.80;;;30.20;57.80;;;;;;4882591;29;20063;-86
2021/07/19 10:45:09;;;;;;;5.72;2.90;;;30.40;57.40;;;;;;4882450;29;20502;-86
2021/07/19 10:47:46;;;;;;;6.05;2.60;;;30.60;57.10;;;;;;4882426;29;20151;-87
2021/07/19 10:50:16;;;;;;;9.82;3.20;;;30.80;56.90;;;;;;4882505;29;20020;-87
2021/07/19 10:52:44;;;;;;;5.65;2.72;;;31.00;57.20;;;;;;4898779;29;20394;-84
2021/07/19 10:55:23;;;;;;;6.57;2.83;;;31.30;56.10;;;;;;4899753;29;20398;-88
2021/07/19 10:58:08;;;;;;;5.68;2.58;;;31.20;55.20;;;;;;4899173;29;20060;-84
2021/07/19 11:00:42;;;;;;;5.93;2.63;;;30.90;54.20;;;;;;4898913;29;20409;-84
2021/07/19 11:03:10;;;;;;;9.45;2.97;;;30.50;53.80;;;;;;4883161;29;20107;-85
2021/07/19 11:05:37;;;;;;;4.30;2.50;;;30.50;55.40;;;;;;4882966;29;20040;-85
2021/07/19 11:08:04;;;;;;;7.15;2.92;;;30.50;55.10;;;;;;4899056;29;20385;-84
2021/07/19 11:10:30;;;;;;;5.93;2.80;;;30.70;55.70;;;;;;4881864;29;20093;-85
2021/07/19 11:12:57;;;;;;;6.65;2.83;;;30.90;55.50;;;;;;4882363;29;20064;-85
2021/07/19 11:15:42;;;;;;;6.70;2.95;;;31.10;55.60;;;;;;4884762;29;20036;-85
2021/07/19 11:18:28;;;;;;;7.75;2.80;;;31.40;56.30;;;;;;4912762;29;20508;-85
2021/07/19 11:20:57;;;;;;;5.88;2.40;;;31.80;56.10;;;;;;4898509;29;20127;-85
2021/07/19 11:23:37;;;;;;;5.15;2.40;;;32.00;55.40;;;;;;4916561;29;20119;-85
2021/07/19 11:26:25;;;;;;;5.82;2.50;;;32.50;56.60;;;;;;4898824;29;20032;-86
2021/07/19 11:28:57;;;;;;;6.38;2.40;;;33.20;56.50;;;;;;4915790;29;20115;-85
2021/07/19 11:31:31;;;;;;;4.82;2.30;;;34.10;57.50;;;;;;4914098;29;20032;-85
2021/07/19 11:34:00;;;;;;;5.65;2.58;;;34.90;56.40;;;;;;4900049;29;20020;-85
2021/07/19 11:36:45;;;;;;;4.05;2.40;;;35.40;56.00;;;;;;4900592;29;20071;-85
2021/07/19 11:39:25;;;;;;;4.90;2.50;;;36.20;56.90;;;;;;4900843;29;20024;-85
2021/07/19 11:42:12;;;;;;;4.20;2.40;;;36.80;55.80;;;;;;4917624;29;20439;-85
2021/07/19 11:44:39;;;;;;;8.00;2.92;;;37.40;54.00;;;;;;4900163;29;20051;-85
2021/07/19 11:47:06;;;;;;;4.82;2.83;;;37.00;49.20;;;;;;4916349;29;20096;-84
2021/07/19 11:49:32;;;;;;;5.20;2.60;;;36.20;48.90;;;;;;4918669;29;20036;-84
2021/07/19 11:51:58;;;;;;;5.03;2.70;;;36.10;52.10;;;;;;4899087;29;20477;-85
2021/07/19 11:54:24;;;;;;;5.93;2.85;;;37.00;53.90;;;;;;4918726;29;20040;-85
2021/07/19 11:56:56;;;;;;;7.68;2.72;;;37.90;53.40;;;;;;4902899;29;20056;-85
2021/07/19 11:59:23;;;;;;;5.72;2.67;;;38.50;50.40;;;;;;4917398;29;20036;-84
2021/07/19 12:02:04;;;;;;;6.38;3.13;;;38.00;47.30;;;;;;4903181;29;20032;-84
2021/07/19 12:04:43;;;;;;;6.50;2.67;;;37.70;49.70;;;;;;4919440;29;20024;-85
2021/07/19 12:07:12;;;;;;;7.30;2.65;;;38.70;51.10;;;;;;4918343;29;20028;-85
2021/07/19 12:09:39;;;;;;;5.63;2.70;;;39.60;50.60;;;;;;4917107;29;20032;-85
2021/07/19 12:12:07;;;;;;;5.82;2.80;;;40.60;50.20;;;;;;4916183;29;20477;-86
2021/07/19 12:14:33;;;;;;;6.45;2.65;;;41.50;48.90;;;;;;4918236;29;20032;-85
2021/07/19 12:16:59;;;;;;;6.60;2.35;;;41.70;45.90;;;;;;4917295;29;20103;-84
2021/07/19 12:19:26;;;;;;;6.32;2.42;;;41.20;46.20;;;;;;4899385;29;20028;-86
2021/07/19 12:21:58;;;;;;;4.57;2.40;;;41.70;47.10;;;;;;4915520;29;20111;-86
2021/07/19 12:24:28;;;;;;;6.13;2.43;;;42.50;46.80;;;;;;4914980;29;20024;-86
2021/07/19 12:26:56;;;;;;;5.63;2.40;;;43.30;46.30;;;;;;4917166;29;20016;-84
2021/07/19 12:29:31;;;;;;;4.82;2.35;;;43.80;45.70;;;;;;4919413;29;20052;-86
2021/07/19 12:32:05;;;;;;;6.93;2.28;;;44.30;45.00;;;;;;4919860;29;20028;-87
2021/07/19 12:34:42;;;;;;;4.57;2.20;;;44.80;44.60;;;;;;4919561;29;20024;-86
2021/07/19 12:37:21;;;;;;;4.22;2.35;;;45.10;43.70;;;;;;4896136;29;20028;-86
2021/07/19 12:39:52;;;;;;;5.40;2.40;;;45.30;43.00;;;;;;4904243;29;20057;-84
2021/07/19 12:42:22;;;;;;;6.28;2.58;;;45.70;43.10;;;;;;4921496;29;20024;-85
2021/07/19 12:45:12;;;;;;;5.78;2.63;;;46.10;42.70;;;;;;4913683;29;20032;-85
2021/07/19 12:47:48;;;;;;;5.72;2.60;;;46.60;41.70;;;;;;4869561;29;20057;-85